sensor_id;sensor_type;location;lat;lon;timestamp;P1;durP1;ratioP1;P2;durP2;ratioP2
1775;SDS011;885;42.626;23.200;2022-11-22T00:00:19;5.20;;;3.70;;
1775;SDS011;885;42.626;23.200;2022-11-22T00:02:50;4.60;;;4.20;;
1775;SDS011;885;42.626;23.200;2022-11-22T00:05:17;4.33;;;4.03;;
1775;SDS011;885;42.626;23.200;2022-11-22T00:07:45;7.03;;;4.53;;
1775;SDS011;885;42.626;23.200;2022-11-22T00:10:12;7.47;;;4.43;;
1775;SDS011;885;42.626;23.200;2022-11-22T00:12:40;5.20;;;4.70;;
1775;SDS011;885;42.626;23.200;2022-11-22T00:15:07;4.70;;;4.30;;
1775;SDS011;885;42.626;23.200;2022-11-22T00:17:37;3.87;;;3.53;;
1775;SDS011;885;42.626;23.200;2022-11-22T00:20:07;7.20;;;3.47;;
1775;SDS011;885;42.626;23.200;2022-11-22T00:22:36;4.10;;;3.70;;
1775;SDS011;885;42.626;23.200;2022-11-22T00:25:03;3.90;;;3.60;;
1775;SDS011;885;42.626;23.200;2022-11-22T00:27:31;9.00;;;3.33;;
1775;SDS011;885;42.626;23.200;2022-11-22T00:29:57;4.17;;;3.47;;
1775;SDS011;885;42.626;23.200;2022-11-22T00:32:24;4.07;;;3.77;;
1775;SDS011;885;42.626;23.200;2022-11-22T00:34:51;5.63;;;3.57;;
1775;SDS011;885;42.626;23.200;2022-11-22T00:37:19;5.17;;;3.90;;
1775;SDS011;885;42.626;23.200;2022-11-22T00:39:46;5.37;;;3.80;;
1775;SDS011;885;42.626;23.200;2022-11-22T00:42:13;5.10;;;3.47;;
1775;SDS011;885;42.626;23.200;2022-11-22T00:44:40;4.30;;;3.90;;
1775;SDS011;885;42.626;23.200;2022-11-22T00:47:07;4.70;;;3.20;;
1775;SDS011;885;42.626;23.200;2022-11-22T00:49:33;4.93;;;3.90;;
1775;SDS011;885;42.626;23.200;2022-11-22T00:52:00;8.00;;;4.70;;
1775;SDS011;885;42.626;23.200;2022-11-22T00:54:28;5.47;;;4.20;;
1775;SDS011;885;42.626;23.200;2022-11-22T00:56:55;5.23;;;4.57;;
1775;SDS011;885;42.626;23.200;2022-11-22T00:59:22;4.23;;;3.83;;
1775;SDS011;885;42.626;23.200;2022-11-22T01:01:49;4.87;;;4.13;;
1775;SDS011;885;42.626;23.200;2022-11-22T01:04:16;5.80;;;4.60;;
1775;SDS011;885;42.626;23.200;2022-11-22T01:06:42;4.97;;;4.50;;
1775;SDS011;885;42.626;23.200;2022-11-22T01:09:09;8.60;;;4.93;;
1775;SDS011;885;42.626;23.200;2022-11-22T01:11:43;5.07;;;4.30;;
1775;SDS011;885;42.626;23.200;2022-11-22T01:14:10;7.37;;;5.20;;
1775;SDS011;885;42.626;23.200;2022-11-22T01:16:37;5.83;;;4.90;;
1775;SDS011;885;42.626;23.200;2022-11-22T01:19:04;5.47;;;4.27;;
1775;SDS011;885;42.626;23.200;2022-11-22T01:21:30;5.70;;;4.57;;
1775;SDS011;885;42.626;23.200;2022-11-22T01:23:57;5.33;;;4.83;;
1775;SDS011;885;42.626;23.200;2022-11-22T01:26:24;5.23;;;4.73;;
1775;SDS011;885;42.626;23.200;2022-11-22T01:28:52;5.50;;;4.20;;
1775;SDS011;885;42.626;23.200;2022-11-22T01:31:19;6.60;;;3.83;;
1775;SDS011;885;42.626;23.200;2022-11-22T01:33:46;16.27;;;3.93;;
1775;SDS011;885;42.626;23.200;2022-11-22T01:36:13;7.23;;;4.00;;
1775;SDS011;885;42.626;23.200;2022-11-22T01:38:40;6.30;;;4.60;;
1775;SDS011;885;42.626;23.200;2022-11-22T01:41:06;6.23;;;3.97;;
1775;SDS011;885;42.626;23.200;2022-11-22T01:43:33;4.67;;;4.20;;
1775;SDS011;885;42.626;23.200;2022-11-22T01:46:03;4.63;;;4.23;;
1775;SDS011;885;42.626;23.200;2022-11-22T01:48:39;5.90;;;4.67;;
1775;SDS011;885;42.626;23.200;2022-11-22T01:51:15;4.70;;;3.80;;
1775;SDS011;885;42.626;23.200;2022-11-22T01:53:46;4.57;;;4.17;;
1775;SDS011;885;42.626;23.200;2022-11-22T01:56:14;6.13;;;4.40;;
1775;SDS011;885;42.626;23.200;2022-11-22T01:58:45;6.47;;;4.30;;
1775;SDS011;885;42.626;23.200;2022-11-22T02:01:17;4.70;;;4.17;;
1775;SDS011;885;42.626;23.200;2022-11-22T02:03:45;5.10;;;4.20;;
1775;SDS011;885;42.626;23.200;2022-11-22T02:06:14;4.53;;;3.90;;
1775;SDS011;885;42.626;23.200;2022-11-22T02:08:44;4.50;;;3.87;;
1775;SDS011;885;42.626;23.200;2022-11-22T02:11:18;3.80;;;3.50;;
1775;SDS011;885;42.626;23.200;2022-11-22T02:13:46;5.47;;;4.93;;
1775;SDS011;885;42.626;23.200;2022-11-22T02:16:17;4.93;;;4.50;;
1775;SDS011;885;42.626;23.200;2022-11-22T02:18:45;5.87;;;4.07;;
1775;SDS011;885;42.626;23.200;2022-11-22T02:21:12;4.97;;;4.50;;
1775;SDS011;885;42.626;23.200;2022-11-22T02:23:48;5.30;;;4.60;;
1775;SDS011;885;42.626;23.200;2022-11-22T02:26:24;3.87;;;3.57;;
1775;SDS011;885;42.626;23.200;2022-11-22T02:28:53;4.17;;;3.77;;
1775;SDS011;885;42.626;23.200;2022-11-22T02:31:33;4.67;;;4.27;;
1775;SDS011;885;42.626;23.200;2022-11-22T02:34:04;5.30;;;3.97;;
1775;SDS011;885;42.626;23.200;2022-11-22T02:36:32;4.30;;;3.90;;
1775;SDS011;885;42.626;23.200;2022-11-22T02:39:02;6.50;;;4.03;;
1775;SDS011;885;42.626;23.200;2022-11-22T02:41:32;4.57;;;4.17;;
1775;SDS011;885;42.626;23.200;2022-11-22T02:44:00;4.93;;;4.30;;
1775;SDS011;885;42.626;23.200;2022-11-22T02:46:27;4.63;;;4.13;;
1775;SDS011;885;42.626;23.200;2022-11-22T02:48:54;5.70;;;4.73;;
1775;SDS011;885;42.626;23.200;2022-11-22T02:51:21;4.77;;;4.37;;
1775;SDS011;885;42.626;23.200;2022-11-22T02:53:49;6.20;;;4.10;;
1775;SDS011;885;42.626;23.200;2022-11-22T02:56:16;5.53;;;4.43;;
1775;SDS011;885;42.626;23.200;2022-11-22T02:58:44;5.40;;;4.90;;
1775;SDS011;885;42.626;23.200;2022-11-22T03:01:11;5.00;;;4.30;;
1775;SDS011;885;42.626;23.200;2022-11-22T03:03:39;5.30;;;4.40;;
1775;SDS011;885;42.626;23.200;2022-11-22T03:06:07;5.30;;;4.80;;
1775;SDS011;885;42.626;23.200;2022-11-22T03:08:34;4.60;;;4.20;;
1775;SDS011;885;42.626;23.200;2022-11-22T03:11:00;4.47;;;4.07;;
1775;SDS011;885;42.626;23.200;2022-11-22T03:13:27;4.70;;;4.20;;
1775;SDS011;885;42.626;23.200;2022-11-22T03:15:55;5.57;;;4.50;;
1775;SDS011;885;42.626;23.200;2022-11-22T03:18:22;6.20;;;4.03;;
1775;SDS011;885;42.626;23.200;2022-11-22T03:20:49;5.43;;;4.67;;
1775;SDS011;885;42.626;23.200;2022-11-22T03:23:16;5.73;;;4.00;;
1775;SDS011;885;42.626;23.200;2022-11-22T03:25:43;5.77;;;5.03;;
1775;SDS011;885;42.626;23.200;2022-11-22T03:28:09;4.60;;;4.13;;
1775;SDS011;885;42.626;23.200;2022-11-22T03:30:39;4.47;;;3.97;;
1775;SDS011;885;42.626;23.200;2022-11-22T03:33:08;4.33;;;3.93;;
1775;SDS011;885;42.626;23.200;2022-11-22T03:35:35;4.33;;;3.93;;
1775;SDS011;885;42.626;23.200;2022-11-22T03:38:02;3.90;;;3.60;;
1775;SDS011;885;42.626;23.200;2022-11-22T03:40:29;6.50;;;4.77;;
1775;SDS011;885;42.626;23.200;2022-11-22T03:42:57;5.37;;;4.20;;
1775;SDS011;885;42.626;23.200;2022-11-22T03:45:25;4.30;;;3.70;;
1775;SDS011;885;42.626;23.200;2022-11-22T03:47:52;3.83;;;3.47;;
1775;SDS011;885;42.626;23.200;2022-11-22T03:50:20;4.90;;;4.13;;
1775;SDS011;885;42.626;23.200;2022-11-22T03:52:48;4.70;;;3.40;;
1775;SDS011;885;42.626;23.200;2022-11-22T03:55:15;4.70;;;4.10;;
1775;SDS011;885;42.626;23.200;2022-11-22T03:57:42;5.20;;;4.27;;
1775;SDS011;885;42.626;23.200;2022-11-22T04:00:09;5.37;;;4.83;;
1775;SDS011;885;42.626;23.200;2022-11-22T04:02:37;7.17;;;4.03;;
1775;SDS011;885;42.626;23.200;2022-11-22T04:05:04;8.20;;;4.87;;
1775;SDS011;885;42.626;23.200;2022-11-22T04:07:33;6.70;;;4.70;;
1775;SDS011;885;42.626;23.200;2022-11-22T04:10:00;6.30;;;4.30;;
1775;SDS011;885;42.626;23.200;2022-11-22T04:12:27;6.77;;;4.67;;
1775;SDS011;885;42.626;23.200;2022-11-22T04:14:54;5.00;;;4.33;;
1775;SDS011;885;42.626;23.200;2022-11-22T04:17:33;5.30;;;4.80;;
1775;SDS011;885;42.626;23.200;2022-11-22T04:20:09;6.63;;;4.20;;
1775;SDS011;885;42.626;23.200;2022-11-22T04:22:57;5.17;;;3.83;;
1775;SDS011;885;42.626;23.200;2022-11-22T04:25:27;5.10;;;4.30;;
1775;SDS011;885;42.626;23.200;2022-11-22T04:27:53;6.63;;;4.23;;
1775;SDS011;885;42.626;23.200;2022-11-22T04:30:20;4.20;;;3.80;;
1775;SDS011;885;42.626;23.200;2022-11-22T04:33:07;4.10;;;3.70;;
1775;SDS011;885;42.626;23.200;2022-11-22T04:35:33;5.40;;;4.90;;
1775;SDS011;885;42.626;23.200;2022-11-22T04:38:01;4.40;;;4.00;;
1775;SDS011;885;42.626;23.200;2022-11-22T04:40:28;5.10;;;4.40;;
1775;SDS011;885;42.626;23.200;2022-11-22T04:42:54;7.10;;;4.90;;
1775;SDS011;885;42.626;23.200;2022-11-22T04:45:38;5.30;;;4.80;;
1775;SDS011;885;42.626;23.200;2022-11-22T04:48:06;6.13;;;5.37;;
1775;SDS011;885;42.626;23.200;2022-11-22T04:50:32;10.77;;;4.80;;
1775;SDS011;885;42.626;23.200;2022-11-22T04:53:18;8.23;;;5.20;;
1775;SDS011;885;42.626;23.200;2022-11-22T04:55:45;5.27;;;4.77;;
1775;SDS011;885;42.626;23.200;2022-11-22T04:58:12;5.90;;;4.47;;
1775;SDS011;885;42.626;23.200;2022-11-22T05:00:40;4.20;;;3.80;;
1775;SDS011;885;42.626;23.200;2022-11-22T05:03:06;4.87;;;4.00;;
1775;SDS011;885;42.626;23.200;2022-11-22T05:05:34;6.10;;;4.33;;
1775;SDS011;885;42.626;23.200;2022-11-22T05:08:02;5.83;;;4.40;;
1775;SDS011;885;42.626;23.200;2022-11-22T05:10:30;6.23;;;4.03;;
1775;SDS011;885;42.626;23.200;2022-11-22T05:13:18;4.80;;;4.40;;
1775;SDS011;885;42.626;23.200;2022-11-22T05:15:46;8.33;;;5.43;;
1775;SDS011;885;42.626;23.200;2022-11-22T05:18:16;10.30;;;8.47;;
1775;SDS011;885;42.626;23.200;2022-11-22T05:20:43;7.30;;;5.93;;
1775;SDS011;885;42.626;23.200;2022-11-22T05:23:10;7.60;;;5.80;;
1775;SDS011;885;42.626;23.200;2022-11-22T05:25:56;6.20;;;4.67;;
1775;SDS011;885;42.626;23.200;2022-11-22T05:28:26;6.30;;;4.90;;
1775;SDS011;885;42.626;23.200;2022-11-22T05:30:53;6.10;;;4.30;;
1775;SDS011;885;42.626;23.200;2022-11-22T05:33:20;6.80;;;5.17;;
1775;SDS011;885;42.626;23.200;2022-11-22T05:35:47;5.10;;;4.13;;
1775;SDS011;885;42.626;23.200;2022-11-22T05:38:14;4.73;;;4.33;;
1775;SDS011;885;42.626;23.200;2022-11-22T05:40:41;6.33;;;5.00;;
1775;SDS011;885;42.626;23.200;2022-11-22T05:43:09;4.93;;;4.43;;
1775;SDS011;885;42.626;23.200;2022-11-22T05:45:36;5.50;;;4.73;;
1775;SDS011;885;42.626;23.200;2022-11-22T05:48:03;4.87;;;4.20;;
1775;SDS011;885;42.626;23.200;2022-11-22T05:50:30;4.90;;;4.50;;
1775;SDS011;885;42.626;23.200;2022-11-22T05:52:59;5.63;;;4.40;;
1775;SDS011;885;42.626;23.200;2022-11-22T05:55:26;5.37;;;4.80;;
1775;SDS011;885;42.626;23.200;2022-11-22T05:57:53;4.97;;;4.43;;
1775;SDS011;885;42.626;23.200;2022-11-22T06:00:21;5.73;;;4.30;;
1775;SDS011;885;42.626;23.200;2022-11-22T06:02:48;6.20;;;5.60;;
1775;SDS011;885;42.626;23.200;2022-11-22T06:05:15;5.47;;;4.97;;
1775;SDS011;885;42.626;23.200;2022-11-22T06:07:42;5.60;;;4.60;;
1775;SDS011;885;42.626;23.200;2022-11-22T06:10:09;4.33;;;3.90;;
1775;SDS011;885;42.626;23.200;2022-11-22T06:12:36;4.23;;;3.83;;
1775;SDS011;885;42.626;23.200;2022-11-22T06:15:03;4.50;;;4.10;;
1775;SDS011;885;42.626;23.200;2022-11-22T06:17:32;6.13;;;4.90;;
1775;SDS011;885;42.626;23.200;2022-11-22T06:19:58;4.33;;;3.93;;
1775;SDS011;885;42.626;23.200;2022-11-22T06:22:25;7.27;;;5.40;;
1775;SDS011;885;42.626;23.200;2022-11-22T06:24:52;7.07;;;5.47;;
1775;SDS011;885;42.626;23.200;2022-11-22T06:27:19;9.30;;;5.77;;
1775;SDS011;885;42.626;23.200;2022-11-22T06:29:46;10.90;;;6.27;;
1775;SDS011;885;42.626;23.200;2022-11-22T06:32:12;6.30;;;5.63;;
1775;SDS011;885;42.626;23.200;2022-11-22T06:34:40;6.10;;;5.10;;
1775;SDS011;885;42.626;23.200;2022-11-22T06:37:07;6.40;;;5.90;;
1775;SDS011;885;42.626;23.200;2022-11-22T06:39:34;6.73;;;5.17;;
1775;SDS011;885;42.626;23.200;2022-11-22T06:42:01;5.97;;;4.60;;
1775;SDS011;885;42.626;23.200;2022-11-22T06:44:28;5.70;;;4.20;;
1775;SDS011;885;42.626;23.200;2022-11-22T06:46:55;6.90;;;5.40;;
1775;SDS011;885;42.626;23.200;2022-11-22T06:49:22;9.20;;;5.80;;
1775;SDS011;885;42.626;23.200;2022-11-22T06:51:50;4.90;;;4.40;;
1775;SDS011;885;42.626;23.200;2022-11-22T06:54:17;7.63;;;5.40;;
1775;SDS011;885;42.626;23.200;2022-11-22T06:56:43;7.53;;;5.83;;
1775;SDS011;885;42.626;23.200;2022-11-22T06:59:10;6.80;;;5.57;;
1775;SDS011;885;42.626;23.200;2022-11-22T07:01:37;5.17;;;4.23;;
1775;SDS011;885;42.626;23.200;2022-11-22T07:04:04;4.83;;;4.33;;
1775;SDS011;885;42.626;23.200;2022-11-22T07:06:32;9.87;;;8.10;;
1775;SDS011;885;42.626;23.200;2022-11-22T07:09:03;7.33;;;5.50;;
1775;SDS011;885;42.626;23.200;2022-11-22T07:11:31;6.53;;;5.47;;
1775;SDS011;885;42.626;23.200;2022-11-22T07:13:59;6.57;;;5.23;;
1775;SDS011;885;42.626;23.200;2022-11-22T07:16:27;6.37;;;5.77;;
1775;SDS011;885;42.626;23.200;2022-11-22T07:18:53;7.00;;;4.47;;
1775;SDS011;885;42.626;23.200;2022-11-22T07:21:21;5.07;;;4.57;;
1775;SDS011;885;42.626;23.200;2022-11-22T07:23:50;4.77;;;4.37;;
1775;SDS011;885;42.626;23.200;2022-11-22T07:26:20;5.97;;;4.50;;
1775;SDS011;885;42.626;23.200;2022-11-22T07:28:48;5.00;;;4.07;;
1775;SDS011;885;42.626;23.200;2022-11-22T07:31:15;7.43;;;5.80;;
1775;SDS011;885;42.626;23.200;2022-11-22T07:33:43;7.53;;;5.73;;
1775;SDS011;885;42.626;23.200;2022-11-22T07:36:11;7.30;;;6.17;;
1775;SDS011;885;42.626;23.200;2022-11-22T07:38:39;6.87;;;5.73;;
1775;SDS011;885;42.626;23.200;2022-11-22T07:41:06;9.07;;;6.27;;
1775;SDS011;885;42.626;23.200;2022-11-22T07:43:35;7.70;;;5.57;;
1775;SDS011;885;42.626;23.200;2022-11-22T07:46:03;5.03;;;4.63;;
1775;SDS011;885;42.626;23.200;2022-11-22T07:48:32;8.00;;;4.90;;
1775;SDS011;885;42.626;23.200;2022-11-22T07:51:02;4.60;;;4.17;;
1775;SDS011;885;42.626;23.200;2022-11-22T07:53:29;3.77;;;3.47;;
1775;SDS011;885;42.626;23.200;2022-11-22T07:55:58;6.03;;;4.10;;
1775;SDS011;885;42.626;23.200;2022-11-22T07:58:27;3.57;;;3.13;;
1775;SDS011;885;42.626;23.200;2022-11-22T08:00:55;3.43;;;2.90;;
1775;SDS011;885;42.626;23.200;2022-11-22T08:03:22;2.77;;;2.57;;
1775;SDS011;885;42.626;23.200;2022-11-22T08:05:49;14.17;;;7.67;;
1775;SDS011;885;42.626;23.200;2022-11-22T08:08:16;3.10;;;2.20;;
1775;SDS011;885;42.626;23.200;2022-11-22T08:10:43;6.33;;;2.47;;
1775;SDS011;885;42.626;23.200;2022-11-22T08:13:10;5.00;;;2.77;;
1775;SDS011;885;42.626;23.200;2022-11-22T08:15:37;2.20;;;1.90;;
1775;SDS011;885;42.626;23.200;2022-11-22T08:18:05;2.67;;;2.07;;
1775;SDS011;885;42.626;23.200;2022-11-22T08:20:32;1.50;;;1.27;;
1775;SDS011;885;42.626;23.200;2022-11-22T08:22:58;1.87;;;1.50;;
1775;SDS011;885;42.626;23.200;2022-11-22T08:25:25;2.00;;;1.63;;
1775;SDS011;885;42.626;23.200;2022-11-22T08:27:52;2.07;;;1.87;;
1775;SDS011;885;42.626;23.200;2022-11-22T08:30:19;3.20;;;2.17;;
1775;SDS011;885;42.626;23.200;2022-11-22T08:32:46;1.60;;;1.40;;
1775;SDS011;885;42.626;23.200;2022-11-22T08:35:14;3.83;;;3.43;;
1775;SDS011;885;42.626;23.200;2022-11-22T08:37:41;7.50;;;6.23;;
1775;SDS011;885;42.626;23.200;2022-11-22T08:40:08;4.50;;;4.10;;
1775;SDS011;885;42.626;23.200;2022-11-22T08:42:35;5.07;;;4.10;;
1775;SDS011;885;42.626;23.200;2022-11-22T08:45:02;3.10;;;2.90;;
1775;SDS011;885;42.626;23.200;2022-11-22T08:47:30;4.83;;;2.83;;
1775;SDS011;885;42.626;23.200;2022-11-22T08:49:57;69.97;;;35.33;;
1775;SDS011;885;42.626;23.200;2022-11-22T08:52:25;2.30;;;2.10;;
1775;SDS011;885;42.626;23.200;2022-11-22T08:54:53;1.87;;;1.53;;
1775;SDS011;885;42.626;23.200;2022-11-22T08:57:20;8.83;;;5.20;;
1775;SDS011;885;42.626;23.200;2022-11-22T08:59:47;12.37;;;7.87;;
1775;SDS011;885;42.626;23.200;2022-11-22T09:02:14;74.47;;;42.83;;
1775;SDS011;885;42.626;23.200;2022-11-22T09:04:41;24.73;;;14.30;;
1775;SDS011;885;42.626;23.200;2022-11-22T09:07:10;20.23;;;13.27;;
1775;SDS011;885;42.626;23.200;2022-11-22T09:09:38;8.53;;;5.43;;
1775;SDS011;885;42.626;23.200;2022-11-22T09:12:05;6.00;;;4.33;;
1775;SDS011;885;42.626;23.200;2022-11-22T09:14:33;9.53;;;6.07;;
1775;SDS011;885;42.626;23.200;2022-11-22T09:17:00;8.30;;;5.57;;
1775;SDS011;885;42.626;23.200;2022-11-22T09:19:27;5.83;;;4.33;;
1775;SDS011;885;42.626;23.200;2022-11-22T09:21:53;4.47;;;4.00;;
1775;SDS011;885;42.626;23.200;2022-11-22T09:46:12;2.57;;;2.20;;
1775;SDS011;885;42.626;23.200;2022-11-22T09:48:59;8.17;;;6.67;;
1775;SDS011;885;42.626;23.200;2022-11-22T09:51:38;5.60;;;4.60;;
1775;SDS011;885;42.626;23.200;2022-11-22T09:54:09;5.50;;;4.33;;
1775;SDS011;885;42.626;23.200;2022-11-22T09:56:40;3.67;;;2.60;;
1775;SDS011;885;42.626;23.200;2022-11-22T09:59:10;4.33;;;3.93;;
1775;SDS011;885;42.626;23.200;2022-11-22T10:01:43;5.90;;;5.30;;
1775;SDS011;885;42.626;23.200;2022-11-22T10:43:02;5.97;;;5.00;;
1775;SDS011;885;42.626;23.200;2022-11-22T10:45:49;8.83;;;5.40;;
1775;SDS011;885;42.626;23.200;2022-11-22T10:48:22;9.20;;;7.20;;
1775;SDS011;885;42.626;23.200;2022-11-22T10:50:57;7.77;;;7.07;;
1775;SDS011;885;42.626;23.200;2022-11-22T10:53:33;6.50;;;5.80;;
1775;SDS011;885;42.626;23.200;2022-11-22T10:56:12;6.73;;;5.83;;
1775;SDS011;885;42.626;23.200;2022-11-22T10:58:54;9.40;;;7.03;;
1775;SDS011;885;42.626;23.200;2022-11-22T11:01:32;5.90;;;5.40;;
1775;SDS011;885;42.626;23.200;2022-11-22T11:04:05;4.97;;;4.00;;
1775;SDS011;885;42.626;23.200;2022-11-22T11:06:35;4.87;;;4.23;;
1775;SDS011;885;42.626;23.200;2022-11-22T11:09:09;7.00;;;6.30;;
1775;SDS011;885;42.626;23.200;2022-11-22T11:11:40;5.77;;;4.83;;
1775;SDS011;885;42.626;23.200;2022-11-22T11:14:11;5.37;;;4.50;;
1775;SDS011;885;42.626;23.200;2022-11-22T11:16:48;6.20;;;5.43;;
1775;SDS011;885;42.626;23.200;2022-11-22T11:19:16;7.60;;;3.80;;
1775;SDS011;885;42.626;23.200;2022-11-22T11:21:44;2.90;;;1.73;;
1775;SDS011;885;42.626;23.200;2022-11-22T11:24:16;6.87;;;6.17;;
1775;SDS011;885;42.626;23.200;2022-11-22T11:26:50;10.80;;;9.80;;
1775;SDS011;885;42.626;23.200;2022-11-22T11:29:26;6.10;;;4.37;;
1775;SDS011;885;42.626;23.200;2022-11-22T11:32:09;2.80;;;2.40;;
1775;SDS011;885;42.626;23.200;2022-11-22T11:34:38;6.20;;;5.47;;
1775;SDS011;885;42.626;23.200;2022-11-22T11:37:08;7.17;;;5.07;;
1775;SDS011;885;42.626;23.200;2022-11-22T11:39:44;15.67;;;8.10;;
1775;SDS011;885;42.626;23.200;2022-11-22T11:45:17;8.00;;;4.60;;
1775;SDS011;885;42.626;23.200;2022-11-22T11:47:52;8.23;;;4.50;;
1775;SDS011;885;42.626;23.200;2022-11-22T12:03:43;4.20;;;3.90;;
1775;SDS011;885;42.626;23.200;2022-11-22T12:06:16;5.10;;;4.23;;
1775;SDS011;885;42.626;23.200;2022-11-22T12:08:43;10.90;;;9.93;;
1775;SDS011;885;42.626;23.200;2022-11-22T12:11:10;21.93;;;19.37;;
1775;SDS011;885;42.626;23.200;2022-11-22T12:13:42;49.57;;;27.67;;
1775;SDS011;885;42.626;23.200;2022-11-22T12:16:15;3.03;;;2.50;;
1775;SDS011;885;42.626;23.200;2022-11-22T12:18:49;3.23;;;3.00;;
1775;SDS011;885;42.626;23.200;2022-11-22T12:21:24;7.47;;;5.93;;
1775;SDS011;885;42.626;23.200;2022-11-22T12:23:55;2.70;;;2.07;;
1775;SDS011;885;42.626;23.200;2022-11-22T12:26:26;5.00;;;3.10;;
1775;SDS011;885;42.626;23.200;2022-11-22T12:28:54;5.93;;;4.57;;
1775;SDS011;885;42.626;23.200;2022-11-22T12:31:24;12.50;;;7.43;;
1775;SDS011;885;42.626;23.200;2022-11-22T12:33:57;3.57;;;3.27;;
1775;SDS011;885;42.626;23.200;2022-11-22T12:36:28;5.20;;;3.93;;
1775;SDS011;885;42.626;23.200;2022-11-22T12:39:02;8.03;;;5.47;;
1775;SDS011;885;42.626;23.200;2022-11-22T12:41:30;5.33;;;3.70;;
1775;SDS011;885;42.626;23.200;2022-11-22T12:44:01;4.60;;;2.33;;
1775;SDS011;885;42.626;23.200;2022-11-22T12:46:32;3.07;;;2.00;;
1775;SDS011;885;42.626;23.200;2022-11-22T12:49:05;3.13;;;1.60;;
1775;SDS011;885;42.626;23.200;2022-11-22T12:51:39;4.20;;;2.60;;
1775;SDS011;885;42.626;23.200;2022-11-22T12:54:12;2.57;;;1.73;;
1775;SDS011;885;42.626;23.200;2022-11-22T12:56:44;5.40;;;2.20;;
1775;SDS011;885;42.626;23.200;2022-11-22T12:59:16;4.10;;;1.90;;
1775;SDS011;885;42.626;23.200;2022-11-22T13:01:51;2.70;;;2.40;;
1775;SDS011;885;42.626;23.200;2022-11-22T13:04:31;5.10;;;2.87;;
1775;SDS011;885;42.626;23.200;2022-11-22T13:07:06;3.03;;;2.07;;
1775;SDS011;885;42.626;23.200;2022-11-22T13:09:40;2.27;;;2.07;;
1775;SDS011;885;42.626;23.200;2022-11-22T13:12:11;3.23;;;2.93;;
1775;SDS011;885;42.626;23.200;2022-11-22T13:14:41;2.37;;;2.17;;
1775;SDS011;885;42.626;23.200;2022-11-22T13:17:11;4.20;;;3.47;;
1775;SDS011;885;42.626;23.200;2022-11-22T13:19:44;9.17;;;8.17;;
1775;SDS011;885;42.626;23.200;2022-11-22T13:22:18;2.63;;;2.33;;
1775;SDS011;885;42.626;23.200;2022-11-22T13:24:55;5.73;;;4.57;;
1775;SDS011;885;42.626;23.200;2022-11-22T13:27:33;3.10;;;2.80;;
1775;SDS011;885;42.626;23.200;2022-11-22T13:30:12;4.30;;;2.97;;
1775;SDS011;885;42.626;23.200;2022-11-22T13:32:43;4.80;;;3.97;;
1775;SDS011;885;42.626;23.200;2022-11-22T13:35:21;3.83;;;3.30;;
1775;SDS011;885;42.626;23.200;2022-11-22T13:37:53;3.97;;;2.80;;
1775;SDS011;885;42.626;23.200;2022-11-22T13:40:23;6.90;;;6.00;;
1775;SDS011;885;42.626;23.200;2022-11-22T13:45:58;4.77;;;4.27;;
1775;SDS011;885;42.626;23.200;2022-11-22T13:51:50;2.73;;;2.47;;
1775;SDS011;885;42.626;23.200;2022-11-22T13:57:36;3.60;;;2.70;;
1775;SDS011;885;42.626;23.200;2022-11-22T14:03:12;3.00;;;2.70;;
1775;SDS011;885;42.626;23.200;2022-11-22T14:05:48;3.07;;;2.77;;
1775;SDS011;885;42.626;23.200;2022-11-22T14:08:29;3.70;;;3.40;;
1775;SDS011;885;42.626;23.200;2022-11-22T14:11:09;12.53;;;8.70;;
1775;SDS011;885;42.626;23.200;2022-11-22T14:13:48;6.27;;;5.60;;
1775;SDS011;885;42.626;23.200;2022-11-22T14:16:25;6.53;;;4.20;;
1775;SDS011;885;42.626;23.200;2022-11-22T14:19:08;4.13;;;2.70;;
1775;SDS011;885;42.626;23.200;2022-11-22T14:21:49;19.87;;;15.83;;
1775;SDS011;885;42.626;23.200;2022-11-22T14:24:33;16.23;;;13.30;;
1775;SDS011;885;42.626;23.200;2022-11-22T14:27:12;15.30;;;12.83;;
1775;SDS011;885;42.626;23.200;2022-11-22T14:32:47;29.80;;;22.83;;
1775;SDS011;885;42.626;23.200;2022-11-22T14:35:18;23.50;;;18.27;;
1775;SDS011;885;42.626;23.200;2022-11-22T14:38:00;21.10;;;16.57;;
1775;SDS011;885;42.626;23.200;2022-11-22T14:40:59;21.00;;;17.77;;
1775;SDS011;885;42.626;23.200;2022-11-22T14:44:14;19.23;;;16.20;;
1775;SDS011;885;42.626;23.200;2022-11-22T14:46:45;22.70;;;17.80;;
1775;SDS011;885;42.626;23.200;2022-11-22T14:49:18;23.83;;;19.03;;
1775;SDS011;885;42.626;23.200;2022-11-22T14:51:51;20.37;;;17.60;;
1775;SDS011;885;42.626;23.200;2022-11-22T14:54:21;28.70;;;21.53;;
1775;SDS011;885;42.626;23.200;2022-11-22T14:56:53;27.40;;;21.40;;
1775;SDS011;885;42.626;23.200;2022-11-22T14:59:34;91.60;;;82.67;;
1775;SDS011;885;42.626;23.200;2022-11-22T15:05:17;77.43;;;60.73;;
1775;SDS011;885;42.626;23.200;2022-11-22T15:08:07;63.43;;;47.27;;
1775;SDS011;885;42.626;23.200;2022-11-22T15:10:57;35.07;;;25.20;;
1775;SDS011;885;42.626;23.200;2022-11-22T15:13:38;22.33;;;17.13;;
1775;SDS011;885;42.626;23.200;2022-11-22T15:16:22;22.80;;;18.50;;
1775;SDS011;885;42.626;23.200;2022-11-22T15:18:52;9.87;;;8.60;;
1775;SDS011;885;42.626;23.200;2022-11-22T15:21:24;13.67;;;12.17;;
1775;SDS011;885;42.626;23.200;2022-11-22T15:23:52;14.37;;;12.27;;
1775;SDS011;885;42.626;23.200;2022-11-22T15:26:20;12.90;;;10.40;;
1775;SDS011;885;42.626;23.200;2022-11-22T15:28:50;9.67;;;8.63;;
1775;SDS011;885;42.626;23.200;2022-11-22T15:31:20;11.03;;;9.27;;
1775;SDS011;885;42.626;23.200;2022-11-22T15:33:48;11.27;;;10.10;;
1775;SDS011;885;42.626;23.200;2022-11-22T15:36:22;15.17;;;12.73;;
1775;SDS011;885;42.626;23.200;2022-11-22T15:38:57;15.67;;;12.87;;
1775;SDS011;885;42.626;23.200;2022-11-22T15:41:25;15.77;;;13.87;;
1775;SDS011;885;42.626;23.200;2022-11-22T15:43:55;12.83;;;11.40;;
1775;SDS011;885;42.626;23.200;2022-11-22T15:46:24;7.30;;;6.60;;
1775;SDS011;885;42.626;23.200;2022-11-22T15:48:52;7.80;;;7.07;;
1775;SDS011;885;42.626;23.200;2022-11-22T15:51:24;5.70;;;4.97;;
1775;SDS011;885;42.626;23.200;2022-11-22T15:53:59;5.17;;;4.67;;
1775;SDS011;885;42.626;23.200;2022-11-22T15:56:43;19.63;;;17.60;;
1775;SDS011;885;42.626;23.200;2022-11-22T15:59:23;33.53;;;29.90;;
1775;SDS011;885;42.626;23.200;2022-11-22T16:01:52;13.40;;;12.10;;
1775;SDS011;885;42.626;23.200;2022-11-22T16:04:22;13.33;;;11.83;;
1775;SDS011;885;42.626;23.200;2022-11-22T16:06:52;154.90;;;76.87;;
1775;SDS011;885;42.626;23.200;2022-11-22T16:09:22;529.73;;;279.20;;
1775;SDS011;885;42.626;23.200;2022-11-22T16:11:59;324.40;;;162.83;;
1775;SDS011;885;42.626;23.200;2022-11-22T16:14:36;38.40;;;25.70;;
1775;SDS011;885;42.626;23.200;2022-11-22T16:17:15;34.33;;;23.50;;
1775;SDS011;885;42.626;23.200;2022-11-22T16:23:04;17.67;;;15.10;;
1775;SDS011;885;42.626;23.200;2022-11-22T16:25:44;28.67;;;22.90;;
1775;SDS011;885;42.626;23.200;2022-11-22T16:31:00;8.10;;;7.40;;
1775;SDS011;885;42.626;23.200;2022-11-22T16:36:07;9.03;;;6.33;;
1775;SDS011;885;42.626;23.200;2022-11-22T16:38:37;6.13;;;4.47;;
1775;SDS011;885;42.626;23.200;2022-11-22T16:41:04;5.90;;;5.17;;
1775;SDS011;885;42.626;23.200;2022-11-22T16:43:38;8.00;;;5.90;;
1775;SDS011;885;42.626;23.200;2022-11-22T16:46:08;4.23;;;3.50;;
1775;SDS011;885;42.626;23.200;2022-11-22T16:48:37;166.80;;;88.30;;
1775;SDS011;885;42.626;23.200;2022-11-22T16:51:05;80.10;;;52.53;;
1775;SDS011;885;42.626;23.200;2022-11-22T16:53:38;69.63;;;49.60;;
1775;SDS011;885;42.626;23.200;2022-11-22T16:56:07;62.00;;;44.60;;
1775;SDS011;885;42.626;23.200;2022-11-22T16:58:40;50.90;;;38.60;;
1775;SDS011;885;42.626;23.200;2022-11-22T17:01:09;24.03;;;18.20;;
1775;SDS011;885;42.626;23.200;2022-11-22T17:03:39;22.97;;;18.53;;
1775;SDS011;885;42.626;23.200;2022-11-22T17:06:08;15.67;;;12.40;;
1775;SDS011;885;42.626;23.200;2022-11-22T17:08:40;13.90;;;10.50;;
1775;SDS011;885;42.626;23.200;2022-11-22T17:11:08;9.37;;;7.37;;
1775;SDS011;885;42.626;23.200;2022-11-22T17:13:35;11.93;;;8.87;;